sensor_id;sensor_type;location;lat;lon;timestamp;P1;durP1;ratioP1;P2;durP2;ratioP2
609;SDS011;292;48.800;9.216;2024-01-30T00:02:16;16.85;;;7.97;;
609;SDS011;292;48.800;9.216;2024-01-30T00:04:43;17.13;;;7.10;;
609;SDS011;292;48.800;9.216;2024-01-30T00:07:11;20.45;;;9.00;;
609;SDS011;292;48.800;9.216;2024-01-30T00:09:39;19.23;;;8.55;;
609;SDS011;292;48.800;9.216;2024-01-30T00:12:07;19.67;;;8.18;;
609;SDS011;292;48.800;9.216;2024-01-30T00:14:34;23.13;;;9.45;;
609;SDS011;292;48.800;9.216;2024-01-30T00:17:01;23.75;;;9.85;;
609;SDS011;292;48.800;9.216;2024-01-30T00:19:28;25.38;;;10.10;;
609;SDS011;292;48.800;9.216;2024-01-30T00:21:54;31.38;;;11.23;;
609;SDS011;292;48.800;9.216;2024-01-30T00:24:21;22.05;;;10.85;;
609;SDS011;292;48.800;9.216;2024-01-30T00:26:50;22.13;;;10.52;;
609;SDS011;292;48.800;9.216;2024-01-30T00:29:17;23.27;;;10.07;;
609;SDS011;292;48.800;9.216;2024-01-30T00:31:45;24.83;;;10.82;;
609;SDS011;292;48.800;9.216;2024-01-30T00:34:12;22.80;;;10.15;;
609;SDS011;292;48.800;9.216;2024-01-30T00:36:39;18.58;;;9.15;;
609;SDS011;292;48.800;9.216;2024-01-30T00:39:06;21.52;;;9.70;;
609;SDS011;292;48.800;9.216;2024-01-30T00:41:34;21.63;;;7.90;;
609;SDS011;292;48.800;9.216;2024-01-30T00:44:02;17.98;;;7.78;;
609;SDS011;292;48.800;9.216;2024-01-30T00:46:30;25.27;;;8.40;;
609;SDS011;292;48.800;9.216;2024-01-30T00:48:56;18.63;;;8.38;;
609;SDS011;292;48.800;9.216;2024-01-30T00:51:23;18.55;;;8.55;;
609;SDS011;292;48.800;9.216;2024-01-30T00:53:50;21.85;;;9.15;;
609;SDS011;292;48.800;9.216;2024-01-30T00:56:18;19.67;;;8.70;;
609;SDS011;292;48.800;9.216;2024-01-30T00:58:45;25.17;;;9.05;;
609;SDS011;292;48.800;9.216;2024-01-30T01:01:14;17.10;;;7.80;;
609;SDS011;292;48.800;9.216;2024-01-30T01:03:41;20.63;;;9.55;;
609;SDS011;292;48.800;9.216;2024-01-30T01:06:08;15.55;;;7.53;;
609;SDS011;292;48.800;9.216;2024-01-30T01:08:35;22.50;;;7.78;;
609;SDS011;292;48.800;9.216;2024-01-30T01:11:02;20.17;;;9.52;;
609;SDS011;292;48.800;9.216;2024-01-30T01:13:30;18.60;;;8.80;;
609;SDS011;292;48.800;9.216;2024-01-30T01:15:57;18.40;;;9.02;;
609;SDS011;292;48.800;9.216;2024-01-30T01:18:25;23.70;;;8.63;;
609;SDS011;292;48.800;9.216;2024-01-30T01:20:53;17.83;;;8.27;;
609;SDS011;292;48.800;9.216;2024-01-30T01:23:20;20.92;;;8.82;;
609;SDS011;292;48.800;9.216;2024-01-30T01:25:47;24.42;;;8.45;;
609;SDS011;292;48.800;9.216;2024-01-30T01:28:13;17.58;;;8.45;;
609;SDS011;292;48.800;9.216;2024-01-30T01:30:40;22.95;;;8.77;;
609;SDS011;292;48.800;9.216;2024-01-30T01:33:07;26.95;;;9.80;;
609;SDS011;292;48.800;9.216;2024-01-30T01:35:36;24.08;;;8.98;;
609;SDS011;292;48.800;9.216;2024-01-30T01:38:03;23.98;;;10.50;;
609;SDS011;292;48.800;9.216;2024-01-30T01:40:30;19.55;;;9.10;;
609;SDS011;292;48.800;9.216;2024-01-30T01:42:57;21.35;;;9.23;;
609;SDS011;292;48.800;9.216;2024-01-30T01:45:24;18.00;;;8.15;;
609;SDS011;292;48.800;9.216;2024-01-30T01:47:51;22.70;;;10.10;;
609;SDS011;292;48.800;9.216;2024-01-30T01:50:18;22.40;;;8.65;;
609;SDS011;292;48.800;9.216;2024-01-30T01:52:49;19.30;;;8.52;;
609;SDS011;292;48.800;9.216;2024-01-30T01:55:16;23.08;;;9.25;;
609;SDS011;292;48.800;9.216;2024-01-30T01:57:47;21.08;;;9.75;;
609;SDS011;292;48.800;9.216;2024-01-30T02:00:14;23.88;;;9.50;;
609;SDS011;292;48.800;9.216;2024-01-30T02:02:41;13.40;;;8.05;;
609;SDS011;292;48.800;9.216;2024-01-30T02:05:11;20.35;;;8.93;;
609;SDS011;292;48.800;9.216;2024-01-30T02:07:38;17.52;;;8.20;;
609;SDS011;292;48.800;9.216;2024-01-30T02:10:08;18.75;;;8.35;;
609;SDS011;292;48.800;9.216;2024-01-30T02:12:35;16.23;;;8.00;;
609;SDS011;292;48.800;9.216;2024-01-30T02:15:03;15.30;;;7.47;;
609;SDS011;292;48.800;9.216;2024-01-30T02:17:32;17.08;;;8.60;;
609;SDS011;292;48.800;9.216;2024-01-30T02:19:59;16.70;;;8.07;;
609;SDS011;292;48.800;9.216;2024-01-30T02:22:27;19.60;;;8.25;;
609;SDS011;292;48.800;9.216;2024-01-30T02:24:55;17.88;;;8.52;;
609;SDS011;292;48.800;9.216;2024-01-30T02:27:21;27.50;;;9.00;;
609;SDS011;292;48.800;9.216;2024-01-30T02:29:48;25.10;;;8.55;;
609;SDS011;292;48.800;9.216;2024-01-30T02:32:16;21.20;;;8.77;;
609;SDS011;292;48.800;9.216;2024-01-30T02:34:43;20.92;;;8.48;;
609;SDS011;292;48.800;9.216;2024-01-30T02:37:10;19.23;;;8.60;;
609;SDS011;292;48.800;9.216;2024-01-30T02:39:38;16.98;;;8.15;;
609;SDS011;292;48.800;9.216;2024-01-30T02:42:05;17.92;;;7.53;;
609;SDS011;292;48.800;9.216;2024-01-30T02:44:32;14.68;;;7.25;;
609;SDS011;292;48.800;9.216;2024-01-30T02:46:59;22.98;;;7.63;;
609;SDS011;292;48.800;9.216;2024-01-30T02:49:26;15.30;;;8.07;;
609;SDS011;292;48.800;9.216;2024-01-30T02:51:53;20.20;;;8.00;;
609;SDS011;292;48.800;9.216;2024-01-30T02:54:21;21.77;;;8.23;;
609;SDS011;292;48.800;9.216;2024-01-30T02:56:50;25.50;;;8.73;;
609;SDS011;292;48.800;9.216;2024-01-30T02:59:17;22.50;;;7.63;;
609;SDS011;292;48.800;9.216;2024-01-30T03:01:44;16.52;;;7.18;;
609;SDS011;292;48.800;9.216;2024-01-30T03:04:11;16.88;;;8.05;;
609;SDS011;292;48.800;9.216;2024-01-30T03:06:38;17.60;;;7.80;;
609;SDS011;292;48.800;9.216;2024-01-30T03:09:05;17.70;;;7.70;;
609;SDS011;292;48.800;9.216;2024-01-30T03:11:32;16.98;;;7.95;;
609;SDS011;292;48.800;9.216;2024-01-30T03:14:00;25.27;;;8.15;;
609;SDS011;292;48.800;9.216;2024-01-30T03:16:29;13.98;;;7.80;;
609;SDS011;292;48.800;9.216;2024-01-30T03:18:56;17.33;;;8.60;;
609;SDS011;292;48.800;9.216;2024-01-30T03:21:23;17.58;;;8.27;;
609;SDS011;292;48.800;9.216;2024-01-30T03:23:50;20.67;;;7.97;;
609;SDS011;292;48.800;9.216;2024-01-30T03:26:17;19.75;;;8.02;;
609;SDS011;292;48.800;9.216;2024-01-30T03:49:37;18.55;;;7.80;;
609;SDS011;292;48.800;9.216;2024-01-30T03:52:04;17.05;;;7.88;;
609;SDS011;292;48.800;9.216;2024-01-30T03:54:31;17.88;;;7.50;;
609;SDS011;292;48.800;9.216;2024-01-30T03:56:58;18.58;;;8.15;;
609;SDS011;292;48.800;9.216;2024-01-30T03:59:25;16.77;;;7.65;;
609;SDS011;292;48.800;9.216;2024-01-30T04:01:52;22.00;;;7.28;;
609;SDS011;292;48.800;9.216;2024-01-30T04:04:20;14.13;;;6.90;;
609;SDS011;292;48.800;9.216;2024-01-30T04:06:48;14.43;;;7.32;;
609;SDS011;292;48.800;9.216;2024-01-30T04:09:15;17.70;;;7.75;;
609;SDS011;292;48.800;9.216;2024-01-30T04:11:42;17.58;;;8.15;;
609;SDS011;292;48.800;9.216;2024-01-30T04:14:09;16.45;;;7.10;;
609;SDS011;292;48.800;9.216;2024-01-30T04:16:36;18.45;;;8.00;;
609;SDS011;292;48.800;9.216;2024-01-30T04:19:03;20.92;;;8.73;;
609;SDS011;292;48.800;9.216;2024-01-30T04:21:31;15.73;;;7.65;;
609;SDS011;292;48.800;9.216;2024-01-30T04:23:58;17.30;;;8.07;;
609;SDS011;292;48.800;9.216;2024-01-30T04:26:25;15.30;;;7.65;;
609;SDS011;292;48.800;9.216;2024-01-30T04:28:52;16.88;;;7.85;;
609;SDS011;292;48.800;9.216;2024-01-30T04:31:22;19.00;;;8.50;;
609;SDS011;292;48.800;9.216;2024-01-30T04:33:49;16.45;;;8.15;;
609;SDS011;292;48.800;9.216;2024-01-30T04:36:16;18.42;;;7.68;;
609;SDS011;292;48.800;9.216;2024-01-30T04:38:45;23.00;;;9.25;;
609;SDS011;292;48.800;9.216;2024-01-30T04:41:12;17.70;;;8.48;;
609;SDS011;292;48.800;9.216;2024-01-30T04:43:39;22.33;;;9.43;;
609;SDS011;292;48.800;9.216;2024-01-30T04:46:06;20.10;;;7.93;;
609;SDS011;292;48.800;9.216;2024-01-30T04:48:33;14.45;;;7.45;;
609;SDS011;292;48.800;9.216;2024-01-30T04:51:00;25.63;;;8.63;;
609;SDS011;292;48.800;9.216;2024-01-30T04:53:29;20.40;;;9.00;;
609;SDS011;292;48.800;9.216;2024-01-30T04:55:58;19.70;;;8.70;;
609;SDS011;292;48.800;9.216;2024-01-30T04:58:25;19.25;;;8.43;;
609;SDS011;292;48.800;9.216;2024-01-30T05:00:52;18.23;;;9.77;;
609;SDS011;292;48.800;9.216;2024-01-30T05:03:18;19.80;;;8.15;;
609;SDS011;292;48.800;9.216;2024-01-30T05:05:47;18.50;;;8.70;;
609;SDS011;292;48.800;9.216;2024-01-30T05:08:14;14.25;;;7.63;;
609;SDS011;292;48.800;9.216;2024-01-30T05:10:41;17.95;;;8.30;;
609;SDS011;292;48.800;9.216;2024-01-30T05:13:09;20.05;;;8.88;;
609;SDS011;292;48.800;9.216;2024-01-30T05:15:38;15.80;;;7.97;;
609;SDS011;292;48.800;9.216;2024-01-30T05:18:05;30.70;;;8.32;;
609;SDS011;292;48.800;9.216;2024-01-30T05:20:32;16.42;;;7.70;;
609;SDS011;292;48.800;9.216;2024-01-30T05:22:59;20.73;;;7.75;;
609;SDS011;292;48.800;9.216;2024-01-30T05:25:26;17.92;;;8.05;;
609;SDS011;292;48.800;9.216;2024-01-30T05:27:53;27.58;;;7.88;;
609;SDS011;292;48.800;9.216;2024-01-30T05:30:23;20.05;;;8.85;;
609;SDS011;292;48.800;9.216;2024-01-30T05:32:49;19.20;;;8.05;;
609;SDS011;292;48.800;9.216;2024-01-30T05:35:17;17.02;;;8.05;;
609;SDS011;292;48.800;9.216;2024-01-30T05:37:46;20.42;;;8.00;;
609;SDS011;292;48.800;9.216;2024-01-30T05:40:13;24.35;;;9.02;;
609;SDS011;292;48.800;9.216;2024-01-30T05:42:39;18.83;;;8.10;;
609;SDS011;292;48.800;9.216;2024-01-30T05:45:07;16.35;;;7.80;;
609;SDS011;292;48.800;9.216;2024-01-30T05:47:35;15.93;;;7.15;;
609;SDS011;292;48.800;9.216;2024-01-30T05:50:02;24.38;;;8.80;;
609;SDS011;292;48.800;9.216;2024-01-30T05:52:30;14.55;;;7.93;;
609;SDS011;292;48.800;9.216;2024-01-30T05:54:57;18.98;;;8.55;;
609;SDS011;292;48.800;9.216;2024-01-30T05:57:24;23.20;;;7.53;;
609;SDS011;292;48.800;9.216;2024-01-30T05:59:51;16.85;;;7.82;;
609;SDS011;292;48.800;9.216;2024-01-30T06:02:18;20.33;;;8.77;;
609;SDS011;292;48.800;9.216;2024-01-30T06:04:46;15.80;;;7.85;;
609;SDS011;292;48.800;9.216;2024-01-30T06:07:13;20.48;;;8.25;;
609;SDS011;292;48.800;9.216;2024-01-30T06:09:40;21.80;;;8.23;;
609;SDS011;292;48.800;9.216;2024-01-30T06:12:07;23.73;;;9.13;;
609;SDS011;292;48.800;9.216;2024-01-30T06:14:36;16.88;;;8.88;;
609;SDS011;292;48.800;9.216;2024-01-30T06:17:03;27.65;;;8.27;;
609;SDS011;292;48.800;9.216;2024-01-30T06:19:31;25.35;;;8.52;;
609;SDS011;292;48.800;9.216;2024-01-30T06:21:59;17.98;;;7.72;;
609;SDS011;292;48.800;9.216;2024-01-30T06:24:26;14.63;;;7.80;;
609;SDS011;292;48.800;9.216;2024-01-30T06:26:53;20.13;;;8.40;;
609;SDS011;292;48.800;9.216;2024-01-30T06:29:20;16.35;;;8.07;;
609;SDS011;292;48.800;9.216;2024-01-30T06:31:49;17.60;;;8.00;;
609;SDS011;292;48.800;9.216;2024-01-30T06:34:16;13.93;;;7.85;;
609;SDS011;292;48.800;9.216;2024-01-30T06:36:43;19.63;;;8.20;;
609;SDS011;292;48.800;9.216;2024-01-30T06:39:12;16.27;;;8.30;;
609;SDS011;292;48.800;9.216;2024-01-30T06:41:39;20.10;;;9.02;;
609;SDS011;292;48.800;9.216;2024-01-30T06:44:06;30.27;;;9.93;;
609;SDS011;292;48.800;9.216;2024-01-30T06:46:33;21.42;;;8.93;;
609;SDS011;292;48.800;9.216;2024-01-30T06:49:00;18.65;;;8.82;;
609;SDS011;292;48.800;9.216;2024-01-30T06:51:27;19.27;;;8.73;;
609;SDS011;292;48.800;9.216;2024-01-30T06:53:54;25.92;;;9.88;;
609;SDS011;292;48.800;9.216;2024-01-30T06:56:22;21.60;;;9.23;;
609;SDS011;292;48.800;9.216;2024-01-30T06:58:50;18.15;;;8.18;;
609;SDS011;292;48.800;9.216;2024-01-30T07:01:17;14.50;;;7.43;;
609;SDS011;292;48.800;9.216;2024-01-30T07:03:44;18.98;;;7.85;;
609;SDS011;292;48.800;9.216;2024-01-30T07:06:11;18.50;;;8.05;;
609;SDS011;292;48.800;9.216;2024-01-30T07:08:38;20.48;;;9.27;;
609;SDS011;292;48.800;9.216;2024-01-30T07:11:05;20.80;;;8.70;;
609;SDS011;292;48.800;9.216;2024-01-30T07:13:34;26.00;;;8.63;;
609;SDS011;292;48.800;9.216;2024-01-30T07:16:00;18.58;;;8.57;;
609;SDS011;292;48.800;9.216;2024-01-30T07:18:27;14.07;;;8.18;;
609;SDS011;292;48.800;9.216;2024-01-30T07:20:54;18.15;;;8.57;;
609;SDS011;292;48.800;9.216;2024-01-30T07:23:21;19.77;;;8.77;;
609;SDS011;292;48.800;9.216;2024-01-30T07:25:48;19.65;;;9.35;;
609;SDS011;292;48.800;9.216;2024-01-30T07:28:15;14.98;;;8.13;;
609;SDS011;292;48.800;9.216;2024-01-30T07:30:44;16.75;;;8.20;;
609;SDS011;292;48.800;9.216;2024-01-30T07:33:12;17.17;;;7.80;;
609;SDS011;292;48.800;9.216;2024-01-30T07:35:39;21.83;;;8.98;;
609;SDS011;292;48.800;9.216;2024-01-30T07:38:06;18.45;;;9.25;;
609;SDS011;292;48.800;9.216;2024-01-30T07:40:33;18.95;;;7.78;;
609;SDS011;292;48.800;9.216;2024-01-30T07:43:00;20.95;;;9.10;;
609;SDS011;292;48.800;9.216;2024-01-30T07:45:28;18.27;;;8.45;;
609;SDS011;292;48.800;9.216;2024-01-30T07:47:59;33.72;;;9.35;;
609;SDS011;292;48.800;9.216;2024-01-30T07:50:26;25.58;;;10.43;;
609;SDS011;292;48.800;9.216;2024-01-30T07:52:55;18.70;;;7.93;;
609;SDS011;292;48.800;9.216;2024-01-30T07:55:23;15.05;;;7.65;;
609;SDS011;292;48.800;9.216;2024-01-30T07:57:52;20.98;;;8.93;;
609;SDS011;292;48.800;9.216;2024-01-30T08:00:20;16.48;;;8.07;;
609;SDS011;292;48.800;9.216;2024-01-30T08:02:47;18.90;;;8.52;;
609;SDS011;292;48.800;9.216;2024-01-30T08:05:16;23.30;;;8.30;;
609;SDS011;292;48.800;9.216;2024-01-30T08:07:43;23.33;;;8.88;;
609;SDS011;292;48.800;9.216;2024-01-30T08:10:11;20.42;;;8.27;;
609;SDS011;292;48.800;9.216;2024-01-30T08:12:38;22.60;;;8.68;;
609;SDS011;292;48.800;9.216;2024-01-30T08:15:05;19.13;;;8.25;;
609;SDS011;292;48.800;9.216;2024-01-30T08:17:33;22.48;;;8.57;;
609;SDS011;292;48.800;9.216;2024-01-30T08:20:00;16.48;;;7.75;;
609;SDS011;292;48.800;9.216;2024-01-30T08:22:30;20.33;;;7.78;;
609;SDS011;292;48.800;9.216;2024-01-30T08:24:57;18.35;;;8.32;;
609;SDS011;292;48.800;9.216;2024-01-30T08:27:24;14.52;;;8.15;;
609;SDS011;292;48.800;9.216;2024-01-30T08:29:51;24.42;;;7.13;;
609;SDS011;292;48.800;9.216;2024-01-30T08:32:18;16.10;;;7.45;;
609;SDS011;292;48.800;9.216;2024-01-30T08:34:45;19.08;;;7.97;;
609;SDS011;292;48.800;9.216;2024-01-30T08:37:12;16.60;;;7.70;;
609;SDS011;292;48.800;9.216;2024-01-30T08:39:43;17.67;;;7.90;;
609;SDS011;292;48.800;9.216;2024-01-30T08:42:09;16.05;;;7.47;;
609;SDS011;292;48.800;9.216;2024-01-30T08:44:37;18.48;;;8.48;;
609;SDS011;292;48.800;9.216;2024-01-30T08:47:04;23.05;;;7.05;;
609;SDS011;292;48.800;9.216;2024-01-30T08:49:31;18.20;;;8.00;;
609;SDS011;292;48.800;9.216;2024-01-30T08:51:58;22.95;;;9.13;;
609;SDS011;292;48.800;9.216;2024-01-30T08:54:24;25.00;;;9.77;;
609;SDS011;292;48.800;9.216;2024-01-30T08:56:53;22.00;;;8.85;;
609;SDS011;292;48.800;9.216;2024-01-30T08:59:21;22.17;;;8.45;;
609;SDS011;292;48.800;9.216;2024-01-30T09:01:48;19.20;;;9.60;;
609;SDS011;292;48.800;9.216;2024-01-30T09:04:18;21.17;;;8.55;;
609;SDS011;292;48.800;9.216;2024-01-30T09:06:45;20.80;;;8.88;;
609;SDS011;292;48.800;9.216;2024-01-30T09:09:12;21.65;;;7.85;;
609;SDS011;292;48.800;9.216;2024-01-30T09:11:39;21.80;;;10.18;;
609;SDS011;292;48.800;9.216;2024-01-30T09:14:08;25.38;;;9.05;;
609;SDS011;292;48.800;9.216;2024-01-30T09:16:35;23.13;;;9.40;;
609;SDS011;292;48.800;9.216;2024-01-30T09:19:02;16.27;;;8.32;;
609;SDS011;292;48.800;9.216;2024-01-30T09:21:29;17.67;;;7.97;;
609;SDS011;292;48.800;9.216;2024-01-30T09:24:01;17.65;;;8.35;;
609;SDS011;292;48.800;9.216;2024-01-30T09:26:28;19.75;;;8.85;;
609;SDS011;292;48.800;9.216;2024-01-30T09:28:55;28.25;;;9.15;;
609;SDS011;292;48.800;9.216;2024-01-30T09:31:24;22.88;;;8.75;;
609;SDS011;292;48.800;9.216;2024-01-30T09:33:51;19.90;;;9.07;;
609;SDS011;292;48.800;9.216;2024-01-30T09:36:19;21.40;;;8.95;;
609;SDS011;292;48.800;9.216;2024-01-30T09:38:46;29.57;;;8.37;;
609;SDS011;292;48.800;9.216;2024-01-30T09:41:13;20.52;;;8.48;;
609;SDS011;292;48.800;9.216;2024-01-30T09:43:41;20.77;;;8.73;;
609;SDS011;292;48.800;9.216;2024-01-30T09:46:14;19.37;;;8.90;;
609;SDS011;292;48.800;9.216;2024-01-30T09:48:46;17.63;;;7.80;;
609;SDS011;292;48.800;9.216;2024-01-30T09:51:13;22.57;;;9.33;;
609;SDS011;292;48.800;9.216;2024-01-30T09:53:42;24.27;;;8.50;;
609;SDS011;292;48.800;9.216;2024-01-30T09:56:10;17.38;;;8.43;;
609;SDS011;292;48.800;9.216;2024-01-30T09:58:39;23.40;;;9.10;;
609;SDS011;292;48.800;9.216;2024-01-30T10:01:07;18.60;;;8.60;;
609;SDS011;292;48.800;9.216;2024-01-30T10:03:34;20.43;;;8.50;;
609;SDS011;292;48.800;9.216;2024-01-30T10:06:03;16.63;;;7.20;;
609;SDS011;292;48.800;9.216;2024-01-30T10:08:31;25.93;;;9.10;;
609;SDS011;292;48.800;9.216;2024-01-30T10:10:59;20.20;;;7.90;;
609;SDS011;292;48.800;9.216;2024-01-30T10:13:28;17.57;;;8.17;;
609;SDS011;292;48.800;9.216;2024-01-30T10:15:55;21.33;;;7.93;;
609;SDS011;292;48.800;9.216;2024-01-30T10:18:23;26.47;;;8.67;;
609;SDS011;292;48.800;9.216;2024-01-30T10:20:51;21.40;;;7.33;;
609;SDS011;292;48.800;9.216;2024-01-30T10:23:20;16.67;;;8.20;;
609;SDS011;292;48.800;9.216;2024-01-30T10:25:47;16.37;;;7.53;;
609;SDS011;292;48.800;9.216;2024-01-30T10:28:15;27.33;;;8.87;;
609;SDS011;292;48.800;9.216;2024-01-30T10:30:41;22.30;;;8.83;;
609;SDS011;292;48.800;9.216;2024-01-30T10:33:08;14.73;;;7.53;;
609;SDS011;292;48.800;9.216;2024-01-30T10:35:36;17.90;;;8.53;;
609;SDS011;292;48.800;9.216;2024-01-30T10:38:03;16.33;;;8.03;;
609;SDS011;292;48.800;9.216;2024-01-30T10:40:35;18.77;;;8.70;;
609;SDS011;292;48.800;9.216;2024-01-30T10:43:05;17.63;;;8.70;;
609;SDS011;292;48.800;9.216;2024-01-30T10:45:37;17.13;;;9.17;;
609;SDS011;292;48.800;9.216;2024-01-30T10:48:06;16.03;;;8.20;;
609;SDS011;292;48.800;9.216;2024-01-30T10:50:39;20.27;;;8.30;;
609;SDS011;292;48.800;9.216;2024-01-30T10:53:08;21.27;;;9.10;;
609;SDS011;292;48.800;9.216;2024-01-30T10:55:37;21.93;;;8.57;;
609;SDS011;292;48.800;9.216;2024-01-30T10:58:05;28.67;;;10.20;;
609;SDS011;292;48.800;9.216;2024-01-30T11:00:33;27.10;;;9.50;;
609;SDS011;292;48.800;9.216;2024-01-30T11:03:00;27.13;;;8.87;;
609;SDS011;292;48.800;9.216;2024-01-30T11:05:27;19.70;;;9.40;;
609;SDS011;292;48.800;9.216;2024-01-30T11:07:55;30.50;;;9.27;;
609;SDS011;292;48.800;9.216;2024-01-30T11:10:22;16.63;;;8.93;;
609;SDS011;292;48.800;9.216;2024-01-30T11:12:53;19.63;;;8.53;;
609;SDS011;292;48.800;9.216;2024-01-30T11:15:19;25.57;;;9.50;;
609;SDS011;292;48.800;9.216;2024-01-30T11:17:50;21.20;;;9.57;;
609;SDS011;292;48.800;9.216;2024-01-30T11:20:19;22.40;;;9.57;;
609;SDS011;292;48.800;9.216;2024-01-30T11:22:47;25.23;;;9.20;;
609;SDS011;292;48.800;9.216;2024-01-30T11:25:17;23.33;;;8.70;;
609;SDS011;292;48.800;9.216;2024-01-30T11:27:45;15.83;;;8.80;;
609;SDS011;292;48.800;9.216;2024-01-30T11:30:22;21.93;;;10.13;;
609;SDS011;292;48.800;9.216;2024-01-30T11:33:03;16.90;;;9.40;;
609;SDS011;292;48.800;9.216;2024-01-30T11:35:32;22.60;;;8.63;;
609;SDS011;292;48.800;9.216;2024-01-30T11:37:59;20.37;;;9.53;;
609;SDS011;292;48.800;9.216;2024-01-30T11:40:27;19.60;;;9.30;;
609;SDS011;292;48.800;9.216;2024-01-30T11:42:55;20.07;;;8.83;;
609;SDS011;292;48.800;9.216;2024-01-30T11:45:23;19.97;;;7.80;;
609;SDS011;292;48.800;9.216;2024-01-30T11:47:50;24.37;;;8.80;;
609;SDS011;292;48.800;9.216;2024-01-30T11:50:18;21.83;;;8.93;;
609;SDS011;292;48.800;9.216;2024-01-30T11:52:45;21.70;;;8.80;;
609;SDS011;292;48.800;9.216;2024-01-30T11:55:12;14.47;;;8.37;;
609;SDS011;292;48.800;9.216;2024-01-30T11:57:40;18.03;;;8.80;;
609;SDS011;292;48.800;9.216;2024-01-30T12:00:13;19.90;;;8.60;;
609;SDS011;292;48.800;9.216;2024-01-30T12:02:43;17.23;;;8.20;;
609;SDS011;292;48.800;9.216;2024-01-30T12:05:15;18.47;;;8.10;;
609;SDS011;292;48.800;9.216;2024-01-30T12:07:43;23.50;;;9.47;;
609;SDS011;292;48.800;9.216;2024-01-30T12:10:11;21.83;;;10.10;;
609;SDS011;292;48.800;9.216;2024-01-30T12:12:39;21.23;;;8.10;;
609;SDS011;292;48.800;9.216;2024-01-30T12:15:08;16.70;;;8.73;;
609;SDS011;292;48.800;9.216;2024-01-30T12:17:35;24.67;;;9.13;;
609;SDS011;292;48.800;9.216;2024-01-30T12:20:04;21.77;;;9.43;;
609;SDS011;292;48.800;9.216;2024-01-30T12:22:31;18.63;;;8.90;;
609;SDS011;292;48.800;9.216;2024-01-30T12:25:00;18.90;;;9.20;;
609;SDS011;292;48.800;9.216;2024-01-30T12:27:27;18.60;;;9.30;;
609;SDS011;292;48.800;9.216;2024-01-30T12:29:57;26.40;;;9.33;;
609;SDS011;292;48.800;9.216;2024-01-30T12:32:24;28.10;;;9.90;;
609;SDS011;292;48.800;9.216;2024-01-30T12:34:54;23.03;;;9.37;;
609;SDS011;292;48.800;9.216;2024-01-30T12:37:24;19.27;;;9.33;;
609;SDS011;292;48.800;9.216;2024-01-30T12:39:51;22.60;;;8.43;;
609;SDS011;292;48.800;9.216;2024-01-30T12:42:19;27.00;;;9.00;;
609;SDS011;292;48.800;9.216;2024-01-30T12:44:47;26.37;;;9.70;;
609;SDS011;292;48.800;9.216;2024-01-30T12:47:14;16.13;;;8.60;;
609;SDS011;292;48.800;9.216;2024-01-30T12:49:42;40.50;;;10.37;;
609;SDS011;292;48.800;9.216;2024-01-30T12:52:09;26.70;;;9.43;;
609;SDS011;292;48.800;9.216;2024-01-30T12:54:38;38.40;;;11.80;;
609;SDS011;292;48.800;9.216;2024-01-30T12:57:05;35.00;;;11.83;;
609;SDS011;292;48.800;9.216;2024-01-30T12:59:32;37.90;;;11.83;;
609;SDS011;292;48.800;9.216;2024-01-30T13:02:00;37.57;;;11.93;;
609;SDS011;292;48.800;9.216;2024-01-30T13:04:28;29.80;;;10.50;;
609;SDS011;292;48.800;9.216;2024-01-30T13:06:55;27.30;;;11.03;;
609;SDS011;292;48.800;9.216;2024-01-30T13:09:23;37.03;;;13.27;;
609;SDS011;292;48.800;9.216;2024-01-30T13:11:52;25.77;;;9.93;;
609;SDS011;292;48.800;9.216;2024-01-30T13:14:19;30.43;;;11.33;;
609;SDS011;292;48.800;9.216;2024-01-30T13:16:46;30.00;;;11.10;;
609;SDS011;292;48.800;9.216;2024-01-30T13:19:13;31.43;;;11.00;;
609;SDS011;292;48.800;9.216;2024-01-30T13:21:41;29.83;;;10.63;;
609;SDS011;292;48.800;9.216;2024-01-30T13:24:08;23.37;;;9.70;;
609;SDS011;292;48.800;9.216;2024-01-30T13:26:43;24.10;;;11.00;;
609;SDS011;292;48.800;9.216;2024-01-30T13:29:11;29.30;;;10.80;;
609;SDS011;292;48.800;9.216;2024-01-30T13:31:38;45.00;;;11.00;;
609;SDS011;292;48.800;9.216;2024-01-30T13:34:06;31.87;;;10.40;;
609;SDS011;292;48.800;9.216;2024-01-30T13:36:33;23.80;;;10.27;;
609;SDS011;292;48.800;9.216;2024-01-30T13:39:00;20.70;;;10.30;;
609;SDS011;292;48.800;9.216;2024-01-30T13:41:27;30.13;;;12.00;;
609;SDS011;292;48.800;9.216;2024-01-30T13:43:56;25.50;;;11.50;;
609;SDS011;292;48.800;9.216;2024-01-30T13:46:23;20.30;;;9.93;;
609;SDS011;292;48.800;9.216;2024-01-30T13:48:50;27.70;;;11.57;;
609;SDS011;292;48.800;9.216;2024-01-30T13:51:18;18.03;;;9.27;;
609;SDS011;292;48.800;9.216;2024-01-30T13:53:45;27.43;;;10.60;;
609;SDS011;292;48.800;9.216;2024-01-30T13:56:12;19.70;;;9.90;;
609;SDS011;292;48.800;9.216;2024-01-30T13:58:40;24.57;;;9.30;;
609;SDS011;292;48.800;9.216;2024-01-30T14:01:08;21.20;;;9.47;;
609;SDS011;292;48.800;9.216;2024-01-30T14:03:35;26.77;;;11.50;;
609;SDS011;292;48.800;9.216;2024-01-30T14:06:02;27.03;;;10.30;;
609;SDS011;292;48.800;9.216;2024-01-30T14:08:30;30.90;;;10.33;;
609;SDS011;292;48.800;9.216;2024-01-30T14:10:57;24.17;;;9.40;;
609;SDS011;292;48.800;9.216;2024-01-30T14:13:24;29.00;;;11.63;;
609;SDS011;292;48.800;9.216;2024-01-30T14:15:51;26.00;;;10.10;;
609;SDS011;292;48.800;9.216;2024-01-30T14:18:20;28.50;;;9.70;;
609;SDS011;292;48.800;9.216;2024-01-30T14:20:47;35.50;;;11.40;;
609;SDS011;292;48.800;9.216;2024-01-30T14:23:14;25.53;;;10.83;;
609;SDS011;292;48.800;9.216;2024-01-30T14:25:43;41.33;;;12.30;;
609;SDS011;292;48.800;9.216;2024-01-30T14:28:10;34.47;;;11.10;;
609;SDS011;292;48.800;9.216;2024-01-30T14:30:37;24.20;;;10.47;;
609;SDS011;292;48.800;9.216;2024-01-30T14:33:04;22.23;;;9.20;;
609;SDS011;292;48.800;9.216;2024-01-30T14:35:33;21.87;;;10.67;;
609;SDS011;292;48.800;9.216;2024-01-30T14:38:00;29.03;;;12.17;;
609;SDS011;292;48.800;9.216;2024-01-30T14:40:30;26.07;;;10.87;;
609;SDS011;292;48.800;9.216;2024-01-30T14:42:57;31.83;;;11.50;;
609;SDS011;292;48.800;9.216;2024-01-30T14:45:24;21.03;;;10.00;;
609;SDS011;292;48.800;9.216;2024-01-30T14:47:51;16.67;;;9.30;;
609;SDS011;292;48.800;9.216;2024-01-30T14:50:20;25.27;;;10.47;;
609;SDS011;292;48.800;9.216;2024-01-30T14:52:49;23.30;;;11.00;;
609;SDS011;292;48.800;9.216;2024-01-30T14:55:16;28.23;;;10.10;;
609;SDS011;292;48.800;9.216;2024-01-30T14:57:43;22.47;;;11.13;;
609;SDS011;292;48.800;9.216;2024-01-30T15:00:11;28.90;;;9.97;;
609;SDS011;292;48.800;9.216;2024-01-30T15:02:50;24.20;;;10.27;;
609;SDS011;292;48.800;9.216;2024-01-30T15:05:19;24.47;;;9.67;;
609;SDS011;292;48.800;9.216;2024-01-30T15:07:45;28.77;;;10.90;;
609;SDS011;292;48.800;9.216;2024-01-30T15:10:15;31.33;;;11.30;;
609;SDS011;292;48.800;9.216;2024-01-30T15:12:42;25.33;;;11.13;;
609;SDS011;292;48.800;9.216;2024-01-30T15:15:09;19.77;;;10.17;;
609;SDS011;292;48.800;9.216;2024-01-30T15:17:36;19.67;;;8.93;;
609;SDS011;292;48.800;9.216;2024-01-30T15:20:03;24.47;;;10.13;;
609;SDS011;292;48.800;9.216;2024-01-30T15:22:31;17.60;;;9.43;;
609;SDS011;292;48.800;9.216;2024-01-30T15:24:58;19.80;;;9.50;;
609;SDS011;292;48.800;9.216;2024-01-30T15:27:39;21.33;;;10.03;;
609;SDS011;292;48.800;9.216;2024-01-30T15:30:07;21.00;;;10.53;;
609;SDS011;292;48.800;9.216;2024-01-30T15:32:34;23.03;;;9.90;;
609;SDS011;292;48.800;9.216;2024-01-30T15:35:01;27.87;;;10.97;;
609;SDS011;292;48.800;9.216;2024-01-30T16:39:31;17.30;;;8.90;;
609;SDS011;292;48.800;9.216;2024-01-30T16:48:47;31.83;;;10.20;;
609;SDS011;292;48.800;9.216;2024-01-30T16:54:33;49.87;;;11.70;;
609;SDS011;292;48.800;9.216;2024-01-30T17:41:26;28.20;;;11.20;;
609;SDS011;292;48.800;9.216;2024-01-30T17:43:53;22.07;;;10.23;;
609;SDS011;292;48.800;9.216;2024-01-30T17:46:21;27.00;;;11.70;;
609;SDS011;292;48.800;9.216;2024-01-30T17:48:48;26.03;;;11.03;;